createdAt,value
2018-09-27T00:01:51.196Z,98655.88
2018-09-27T00:06:46.142Z,98649.93
2018-09-27T00:11:41.062Z,98640.77
2018-09-27T00:16:35.969Z,98640.06
2018-09-27T00:21:30.866Z,98648.16
2018-09-27T00:26:25.761Z,98644.77
2018-09-27T00:31:20.713Z,98641.16
2018-09-27T00:36:15.638Z,98639.02
2018-09-27T00:41:10.542Z,98633.44
2018-09-27T00:46:05.509Z,98632.14
2018-09-27T00:51:00.213Z,98621.59
2018-09-27T00:55:55.613Z,98628.80
2018-09-27T01:00:50.312Z,98626.12
2018-09-27T01:05:45.147Z,98622.13
2018-09-27T01:10:39.849Z,98618.72
2018-09-27T01:15:34.581Z,98620.39
2018-09-27T01:20:29.345Z,98625.22
2018-09-27T01:25:24.079Z,98616.55
2018-09-27T01:30:19.557Z,98615.72
2018-09-27T01:35:14.272Z,98611.91
2018-09-27T01:40:09.034Z,98601.84
2018-09-27T01:45:03.791Z,98594.26
2018-09-27T01:49:58.507Z,98587.19
2018-09-27T01:54:53.250Z,98595.09
2018-09-27T01:59:47.965Z,98591.05
2018-09-27T02:04:42.677Z,98582.48
2018-09-27T02:09:37.388Z,98587.20
2018-09-27T02:14:32.096Z,98579.88
2018-09-27T02:19:26.815Z,98587.60
2018-09-27T02:24:21.582Z,98585.88
2018-09-27T02:29:16.313Z,98583.00
2018-09-27T02:34:11.023Z,98578.03
2018-09-27T02:39:10.004Z,98572.13
2018-09-27T02:44:04.782Z,98574.09
2018-09-27T02:48:59.493Z,98575.73
2018-09-27T02:53:54.222Z,98567.14
2018-09-27T02:58:48.935Z,98561.73
2018-09-27T03:03:43.705Z,98557.05
2018-09-27T03:08:38.466Z,98554.44
2018-09-27T03:13:33.229Z,98558.70
2018-09-27T03:18:27.931Z,98550.14
2018-09-27T03:23:22.682Z,98542.83
2018-09-27T03:28:17.397Z,98535.52
2018-09-27T03:33:12.180Z,98537.29
2018-09-27T03:38:06.925Z,98537.29
2018-09-27T03:43:01.637Z,98535.35
2018-09-27T03:47:56.364Z,98533.11
2018-09-27T03:52:51.084Z,98535.31
2018-09-27T03:57:45.780Z,98530.56
2018-09-27T04:02:40.551Z,98532.38
2018-09-27T04:07:35.293Z,98523.91
2018-09-27T04:12:29.992Z,98525.92
2018-09-27T04:17:24.733Z,98523.22
2018-09-27T04:22:19.571Z,98519.12
2018-09-27T04:27:14.296Z,98521.77
2018-09-27T04:32:09.029Z,98521.47
2018-09-27T04:37:03.749Z,98524.02
2018-09-27T04:41:58.471Z,98531.66
2018-09-27T04:46:53.203Z,98534.96
2018-09-27T04:51:47.984Z,98541.49
2018-09-27T04:56:42.679Z,98532.02
2018-09-27T05:01:37.429Z,98527.76
2018-09-27T05:06:32.312Z,98530.30
2018-09-27T05:11:26.981Z,98519.35
2018-09-27T05:16:21.742Z,98530.92
2018-09-27T05:21:16.473Z,98522.76
2018-09-27T05:26:11.221Z,98524.07
2018-09-27T05:31:06.009Z,98527.09
2018-09-27T05:36:00.726Z,98509.44
2018-09-27T05:40:55.477Z,98507.97
2018-09-27T05:45:50.260Z,98504.74
2018-09-27T05:50:44.990Z,98506.28
2018-09-27T05:55:39.756Z,98498.73
2018-09-27T06:00:34.670Z,98498.72
2018-09-27T06:05:29.445Z,98497.50
2018-09-27T06:10:24.194Z,98503.72
2018-09-27T06:15:18.980Z,98505.72
2018-09-27T06:20:13.720Z,98504.04
2018-09-27T06:25:08.508Z,98504.89
2018-09-27T06:30:03.370Z,98508.83
2018-09-27T06:34:58.127Z,98501.16
2018-09-27T06:39:52.846Z,98496.29
2018-09-27T06:44:47.616Z,98492.58
2018-09-27T06:49:42.361Z,98487.57
2018-09-27T06:54:37.113Z,98490.84
2018-09-27T06:59:31.868Z,98490.89
2018-09-27T07:04:26.632Z,98496.37
2018-09-27T07:09:21.429Z,98500.97
2018-09-27T07:14:16.151Z,98505.98
2018-09-27T07:19:11.082Z,98497.13
2018-09-27T07:24:05.822Z,98496.02
2018-09-27T07:29:01.644Z,98490.70
2018-09-27T07:33:56.392Z,98496.67
2018-09-27T07:38:51.173Z,98482.33
2018-09-27T07:43:45.942Z,98490.88
2018-09-27T07:48:40.741Z,98496.31
2018-09-27T07:53:36.437Z,98495.09
2018-09-27T07:58:31.171Z,98490.03
2018-09-27T08:03:25.892Z,98484.02
2018-09-27T08:08:20.646Z,98486.70
2018-09-27T08:13:15.438Z,98487.47
2018-09-27T08:18:10.208Z,98487.84
2018-09-27T08:23:04.962Z,98486.25
2018-09-27T08:27:59.714Z,98490.84
2018-09-27T08:32:54.441Z,98488.89
2018-09-27T08:37:49.229Z,98485.00
2018-09-27T08:42:43.971Z,98472.53
2018-09-27T08:47:38.785Z,98474.66
2018-09-27T08:52:33.606Z,98471.05
2018-09-27T08:57:28.436Z,98470.48
2018-09-27T09:02:23.236Z,98467.05
2018-09-27T09:07:18.066Z,98464.68
2018-09-27T09:12:12.937Z,98456.73
2018-09-27T09:17:07.734Z,98445.27
2018-09-27T09:22:02.514Z,98444.73
2018-09-27T09:26:57.328Z,98430.59
2018-09-27T09:31:53.042Z,98425.49
2018-09-27T09:36:47.825Z,98421.30
2018-09-27T09:41:42.621Z,98423.78
2018-09-27T09:46:37.520Z,98416.10
2018-09-27T09:51:33.306Z,98412.61
2018-09-27T09:56:28.251Z,98409.45
2018-09-27T10:01:23.062Z,98397.09
2018-09-27T10:06:17.861Z,98389.40
2018-09-27T10:11:12.676Z,98377.52
2018-09-27T10:16:07.484Z,98366.98
2018-09-27T10:21:02.346Z,98358.31
2018-09-27T10:25:57.141Z,98357.92
2018-09-27T10:30:51.955Z,98351.25
2018-09-27T10:35:46.967Z,98333.28
2018-09-27T10:40:41.756Z,98331.02
2018-09-27T10:45:36.662Z,98319.23
2018-09-27T10:50:31.464Z,98309.25
2018-09-27T10:55:26.283Z,98307.11
2018-09-27T11:00:42.390Z,98306.02
2018-09-27T11:05:53.774Z,98296.73
2018-09-27T11:11:11.854Z,98289.76
2018-09-27T11:26:51.450Z,98256.91
2018-09-27T11:31:51.333Z,98253.61
2018-09-27T11:36:46.149Z,98238.62
2018-09-27T11:41:41.031Z,98230.28
2018-09-27T11:46:35.794Z,98216.61
2018-09-27T11:51:30.590Z,98203.73
2018-09-27T11:56:25.451Z,98194.75
2018-09-27T12:01:20.315Z,98183.89
2018-09-27T12:06:15.134Z,98184.55
2018-09-27T12:11:10.027Z,98159.95
2018-09-27T14:36:27.620Z,97946.14
2018-09-27T14:41:28.010Z,97936.50
2018-09-27T15:10:13.183Z,97921.53
2018-09-27T15:15:08.385Z,97912.72
2018-09-27T15:20:03.430Z,97903.13
2018-09-27T15:24:58.218Z,97897.06
2018-09-27T15:29:53.051Z,97885.97
2018-09-27T15:34:47.909Z,97891.56
2018-09-27T15:39:42.707Z,97880.31
2018-09-27T15:44:37.643Z,97872.83
2018-09-27T15:49:32.525Z,97876.02
2018-09-27T15:54:27.830Z,97870.83
2018-09-27T15:59:22.698Z,97860.57
2018-09-27T16:42:30.110Z,97844.37
2018-09-27T17:29:54.054Z,97835.50
2018-09-27T17:34:49.011Z,97835.64
2018-09-27T17:39:43.868Z,97836.98
2018-09-27T17:45:12.567Z,97840.82
2018-09-27T18:01:27.355Z,97830.90
2018-09-27T18:11:57.474Z,97840.52
2018-09-27T18:27:56.835Z,97836.80
2018-09-27T18:32:51.637Z,97843.31
2018-09-27T18:37:46.539Z,97848.58
2018-09-27T18:42:41.403Z,97845.91
2018-09-27T18:47:36.266Z,97845.81
2018-09-27T18:52:32.030Z,97848.87
2018-09-27T18:57:26.947Z,97850.69
2018-09-27T19:02:21.853Z,97845.64
2018-09-27T19:07:16.733Z,97839.39
2018-09-27T19:12:11.671Z,97838.53
2018-09-27T19:17:06.858Z,97827.82
2018-09-27T19:22:01.543Z,97831.30
2018-09-27T19:26:56.397Z,97846.17
2018-09-27T19:31:51.257Z,97842.20
2018-09-27T19:36:46.182Z,97841.51
2018-09-27T19:41:41.401Z,97835.97
2018-09-27T19:46:36.348Z,97838.03
2018-09-27T19:51:31.162Z,97835.70
2018-09-27T19:56:26.021Z,97829.22
2018-09-27T20:01:20.905Z,97829.79
2018-09-27T20:06:15.761Z,97836.68
2018-09-27T20:11:10.564Z,97831.53
2018-09-27T20:16:05.495Z,97832.70
2018-09-27T20:21:00.423Z,97837.16
2018-09-27T20:25:55.277Z,97832.94
2018-09-27T20:30:50.206Z,97835.28
2018-09-27T20:35:45.082Z,97840.73
2018-09-27T20:40:39.974Z,97835.67
2018-09-27T20:45:34.965Z,97829.95
2018-09-27T20:50:29.790Z,97828.88
2018-09-27T20:55:24.619Z,97823.14
2018-09-27T21:00:19.489Z,97818.15
2018-09-27T21:05:14.318Z,97819.59
2018-09-27T21:10:09.238Z,97813.79
2018-09-27T21:15:04.109Z,97824.56
2018-09-27T21:19:58.917Z,97822.11
2018-09-27T21:24:53.775Z,97824.88
2018-09-27T21:29:49.219Z,97814.96
2018-09-27T21:34:44.023Z,97821.84
2018-09-27T21:39:38.822Z,97820.52
2018-09-27T21:44:33.767Z,97818.86
2018-09-27T21:49:28.587Z,97814.44
2018-09-27T21:54:23.570Z,97822.08
2018-09-27T21:59:18.474Z,97823.15
2018-09-27T22:04:13.331Z,97826.91
2018-09-27T22:09:10.769Z,97828.94
2018-09-27T22:14:05.679Z,97821.58
2018-09-27T22:19:00.578Z,97816.54
2018-09-27T22:23:56.030Z,97809.20
2018-09-27T22:28:51.884Z,97806.08
2018-09-27T22:33:47.787Z,97807.79
2018-09-27T22:38:42.655Z,97810.81
2018-09-27T22:43:37.477Z,97808.66
2018-09-27T22:48:32.275Z,97814.98
2018-09-27T22:53:27.031Z,97809.52
2018-09-27T22:58:21.889Z,97812.61
2018-09-27T23:03:16.921Z,97812.34
2018-09-27T23:08:12.209Z,97807.43
2018-09-27T23:13:06.982Z,97807.93
2018-09-27T23:18:01.735Z,97811.99
2018-09-27T23:22:56.569Z,97816.54
2018-09-27T23:27:51.401Z,97813.41
2018-09-27T23:32:46.165Z,97813.34
2018-09-27T23:37:41.010Z,97812.68
2018-09-27T23:42:36.335Z,97807.27
2018-09-27T23:47:31.280Z,97809.14
2018-09-27T23:52:26.185Z,97812.25
2018-09-27T23:57:21.080Z,97810.58
